sensor_id;sensor_type;location;lat;lon;timestamp;noise_LAeq;noise_LA_min;noise_LA_max;noise_LA01;noise_LA95
67398;Laerm;57728;50.448;18.824;2024-03-17T00:01:28;35.96;34.16;50.83;;
67398;Laerm;57728;50.448;18.824;2024-03-17T00:03:32;35.86;34.39;45.27;;
67398;Laerm;57728;50.448;18.824;2024-03-17T00:05:37;37.72;34.35;57.57;;
67398;Laerm;57728;50.448;18.824;2024-03-17T00:07:41;40.97;34.61;60.42;;
67398;Laerm;57728;50.448;18.824;2024-03-17T00:09:44;36.70;34.43;50.01;;
67398;Laerm;57728;50.448;18.824;2024-03-17T00:11:46;37.21;34.43;53.93;;
67398;Laerm;57728;50.448;18.824;2024-03-17T00:13:47;36.71;34.33;54.67;;
67398;Laerm;57728;50.448;18.824;2024-03-17T00:15:49;35.95;34.06;51.64;;
67398;Laerm;57728;50.448;18.824;2024-03-17T00:17:51;35.75;33.81;50.81;;
67398;Laerm;57728;50.448;18.824;2024-03-17T00:19:52;36.40;34.26;53.14;;
67398;Laerm;57728;50.448;18.824;2024-03-17T00:21:53;36.17;33.97;46.88;;
67398;Laerm;57728;50.448;18.824;2024-03-17T00:23:55;36.47;34.26;56.79;;
67398;Laerm;57728;50.448;18.824;2024-03-17T00:25:57;36.83;34.21;54.67;;
67398;Laerm;57728;50.448;18.824;2024-03-17T00:27:59;35.79;34.25;55.81;;
67398;Laerm;57728;50.448;18.824;2024-03-17T00:30:01;35.92;34.22;50.60;;
67398;Laerm;57728;50.448;18.824;2024-03-17T00:32:05;36.87;34.11;63.04;;
67398;Laerm;57728;50.448;18.824;2024-03-17T00:34:07;36.32;34.02;62.42;;
67398;Laerm;57728;50.448;18.824;2024-03-17T00:36:09;36.21;34.33;54.07;;
67398;Laerm;57728;50.448;18.824;2024-03-17T00:38:10;35.98;34.19;52.14;;
67398;Laerm;57728;50.448;18.824;2024-03-17T00:40:11;35.89;34.15;53.71;;
67398;Laerm;57728;50.448;18.824;2024-03-17T00:42:13;35.92;34.25;46.20;;
67398;Laerm;57728;50.448;18.824;2024-03-17T00:44:15;35.76;34.14;52.96;;
67398;Laerm;57728;50.448;18.824;2024-03-17T00:46:21;35.80;34.09;48.88;;
67398;Laerm;57728;50.448;18.824;2024-03-17T00:48:23;35.89;34.27;43.03;;
67398;Laerm;57728;50.448;18.824;2024-03-17T00:50:24;35.85;34.37;45.61;;
67398;Laerm;57728;50.448;18.824;2024-03-17T00:52:25;36.57;34.21;64.21;;
67398;Laerm;57728;50.448;18.824;2024-03-17T00:54:29;35.81;34.30;43.44;;
67398;Laerm;57728;50.448;18.824;2024-03-17T00:56:30;35.88;34.43;43.07;;
67398;Laerm;57728;50.448;18.824;2024-03-17T00:58:32;35.74;34.21;46.46;;
67398;Laerm;57728;50.448;18.824;2024-03-17T01:00:33;35.80;34.31;42.91;;
67398;Laerm;57728;50.448;18.824;2024-03-17T01:02:34;35.76;34.25;41.18;;
67398;Laerm;57728;50.448;18.824;2024-03-17T01:04:36;35.72;34.13;42.35;;
67398;Laerm;57728;50.448;18.824;2024-03-17T01:06:37;35.74;33.98;40.68;;
67398;Laerm;57728;50.448;18.824;2024-03-17T01:08:41;35.83;34.14;46.67;;
67398;Laerm;57728;50.448;18.824;2024-03-17T01:10:44;35.90;34.24;45.22;;
67398;Laerm;57728;50.448;18.824;2024-03-17T01:12:46;35.78;34.25;40.60;;
67398;Laerm;57728;50.448;18.824;2024-03-17T01:14:47;35.86;34.29;41.03;;
67398;Laerm;57728;50.448;18.824;2024-03-17T01:16:51;35.87;34.32;45.94;;
67398;Laerm;57728;50.448;18.824;2024-03-17T01:18:53;35.79;34.31;44.56;;
67398;Laerm;57728;50.448;18.824;2024-03-17T01:20:54;36.53;34.47;53.50;;
67398;Laerm;57728;50.448;18.824;2024-03-17T01:22:55;36.94;34.23;56.74;;
67398;Laerm;57728;50.448;18.824;2024-03-17T01:24:57;36.49;34.49;52.45;;
67398;Laerm;57728;50.448;18.824;2024-03-17T01:26:58;36.13;34.18;51.16;;
67398;Laerm;57728;50.448;18.824;2024-03-17T01:29:00;36.10;34.37;45.74;;
67398;Laerm;57728;50.448;18.824;2024-03-17T01:31:06;39.22;34.55;56.44;;
67398;Laerm;57728;50.448;18.824;2024-03-17T01:33:07;36.49;34.33;50.52;;
67398;Laerm;57728;50.448;18.824;2024-03-17T01:35:10;37.45;34.51;55.58;;
67398;Laerm;57728;50.448;18.824;2024-03-17T01:37:13;37.17;34.40;66.60;;
67398;Laerm;57728;50.448;18.824;2024-03-17T01:39:17;36.28;34.30;56.17;;
67398;Laerm;57728;50.448;18.824;2024-03-17T01:41:19;39.36;34.27;61.79;;
67398;Laerm;57728;50.448;18.824;2024-03-17T01:43:21;36.08;34.09;52.74;;
67398;Laerm;57728;50.448;18.824;2024-03-17T01:45:32;36.03;34.29;50.79;;
67398;Laerm;57728;50.448;18.824;2024-03-17T01:47:33;35.65;34.05;40.71;;
67398;Laerm;57728;50.448;18.824;2024-03-17T01:49:36;35.61;33.99;47.90;;
67398;Laerm;57728;50.448;18.824;2024-03-17T01:51:37;36.23;34.24;50.87;;
67398;Laerm;57728;50.448;18.824;2024-03-17T01:53:39;35.71;34.04;42.75;;
67398;Laerm;57728;50.448;18.824;2024-03-17T01:55:44;35.91;34.35;46.21;;
67398;Laerm;57728;50.448;18.824;2024-03-17T01:57:46;35.56;34.20;42.82;;
67398;Laerm;57728;50.448;18.824;2024-03-17T01:59:48;35.86;34.16;46.87;;
67398;Laerm;57728;50.448;18.824;2024-03-17T02:01:50;35.61;34.26;42.93;;
67398;Laerm;57728;50.448;18.824;2024-03-17T02:03:51;35.62;33.92;39.35;;
67398;Laerm;57728;50.448;18.824;2024-03-17T02:05:52;35.97;34.11;50.76;;
67398;Laerm;57728;50.448;18.824;2024-03-17T02:07:54;35.67;34.05;41.59;;
67398;Laerm;57728;50.448;18.824;2024-03-17T02:09:58;35.73;34.30;45.88;;
67398;Laerm;57728;50.448;18.824;2024-03-17T02:11:59;36.58;34.35;52.59;;
67398;Laerm;57728;50.448;18.824;2024-03-17T02:14:02;36.02;34.31;50.54;;
67398;Laerm;57728;50.448;18.824;2024-03-17T02:16:03;35.77;34.02;42.33;;
67398;Laerm;57728;50.448;18.824;2024-03-17T02:18:04;35.65;33.86;41.33;;
67398;Laerm;57728;50.448;18.824;2024-03-17T02:20:07;35.59;34.20;42.49;;
67398;Laerm;57728;50.448;18.824;2024-03-17T02:22:14;36.20;34.25;51.64;;
67398;Laerm;57728;50.448;18.824;2024-03-17T02:24:16;35.55;34.29;45.51;;
67398;Laerm;57728;50.448;18.824;2024-03-17T02:26:18;35.46;34.28;42.49;;
67398;Laerm;57728;50.448;18.824;2024-03-17T02:28:19;35.44;34.09;40.24;;
67398;Laerm;57728;50.448;18.824;2024-03-17T02:30:21;36.92;34.18;54.52;;
67398;Laerm;57728;50.448;18.824;2024-03-17T02:32:22;35.78;34.21;44.85;;
67398;Laerm;57728;50.448;18.824;2024-03-17T02:34:24;35.44;33.78;44.49;;
67398;Laerm;57728;50.448;18.824;2024-03-17T02:36:25;35.34;33.83;42.12;;
67398;Laerm;57728;50.448;18.824;2024-03-17T02:38:27;35.28;33.80;42.04;;
67398;Laerm;57728;50.448;18.824;2024-03-17T02:40:47;35.55;33.96;49.14;;
67398;Laerm;57728;50.448;18.824;2024-03-17T02:42:49;35.55;34.09;46.79;;
67398;Laerm;57728;50.448;18.824;2024-03-17T02:44:50;35.66;33.95;50.75;;
67398;Laerm;57728;50.448;18.824;2024-03-17T02:46:52;36.29;33.93;57.11;;
67398;Laerm;57728;50.448;18.824;2024-03-17T02:48:53;35.28;34.09;44.07;;
67398;Laerm;57728;50.448;18.824;2024-03-17T02:50:55;35.15;33.93;37.30;;
67398;Laerm;57728;50.448;18.824;2024-03-17T02:52:57;35.36;33.93;46.84;;
67398;Laerm;57728;50.448;18.824;2024-03-17T02:54:58;35.41;34.04;44.55;;
67398;Laerm;57728;50.448;18.824;2024-03-17T02:56:59;35.31;33.82;43.71;;
67398;Laerm;57728;50.448;18.824;2024-03-17T02:59:01;36.14;34.03;52.07;;
67398;Laerm;57728;50.448;18.824;2024-03-17T03:01:07;37.66;34.06;53.42;;
67398;Laerm;57728;50.448;18.824;2024-03-17T03:03:08;35.44;34.04;47.23;;
67398;Laerm;57728;50.448;18.824;2024-03-17T03:05:09;35.15;33.92;39.77;;
67398;Laerm;57728;50.448;18.824;2024-03-17T03:07:11;35.81;33.77;49.59;;
67398;Laerm;57728;50.448;18.824;2024-03-17T03:09:12;35.66;33.87;46.66;;
67398;Laerm;57728;50.448;18.824;2024-03-17T03:11:17;36.15;33.74;55.67;;
67398;Laerm;57728;50.448;18.824;2024-03-17T03:13:18;36.08;33.93;54.37;;
67398;Laerm;57728;50.448;18.824;2024-03-17T03:15:20;36.04;34.04;50.58;;
67398;Laerm;57728;50.448;18.824;2024-03-17T03:17:22;37.07;33.68;53.72;;
67398;Laerm;57728;50.448;18.824;2024-03-17T03:19:26;35.47;33.78;45.56;;
67398;Laerm;57728;50.448;18.824;2024-03-17T03:21:27;36.45;33.93;56.11;;
67398;Laerm;57728;50.448;18.824;2024-03-17T03:23:30;35.87;34.04;48.90;;
67398;Laerm;57728;50.448;18.824;2024-03-17T03:25:32;36.03;33.53;54.10;;
67398;Laerm;57728;50.448;18.824;2024-03-17T03:27:33;35.38;33.96;47.35;;
67398;Laerm;57728;50.448;18.824;2024-03-17T03:29:35;35.41;33.61;43.49;;
67398;Laerm;57728;50.448;18.824;2024-03-17T03:31:38;35.33;33.90;45.82;;
67398;Laerm;57728;50.448;18.824;2024-03-17T03:33:43;36.73;33.98;58.10;;
67398;Laerm;57728;50.448;18.824;2024-03-17T03:35:45;35.48;33.87;47.32;;
67398;Laerm;57728;50.448;18.824;2024-03-17T03:37:46;35.55;33.90;49.70;;
67398;Laerm;57728;50.448;18.824;2024-03-17T03:39:47;35.22;33.90;41.05;;
67398;Laerm;57728;50.448;18.824;2024-03-17T03:41:50;35.90;34.04;49.97;;
67398;Laerm;57728;50.448;18.824;2024-03-17T03:43:52;36.53;34.03;53.57;;
67398;Laerm;57728;50.448;18.824;2024-03-17T03:45:54;35.54;33.82;49.41;;
67398;Laerm;57728;50.448;18.824;2024-03-17T03:47:56;35.37;33.71;45.02;;
67398;Laerm;57728;50.448;18.824;2024-03-17T03:49:58;36.82;33.81;54.09;;
67398;Laerm;57728;50.448;18.824;2024-03-17T03:51:59;35.16;33.93;38.94;;
67398;Laerm;57728;50.448;18.824;2024-03-17T03:54:01;35.16;33.82;41.76;;
67398;Laerm;57728;50.448;18.824;2024-03-17T03:56:07;35.31;33.56;47.56;;
67398;Laerm;57728;50.448;18.824;2024-03-17T03:58:08;35.10;33.79;38.96;;
67398;Laerm;57728;50.448;18.824;2024-03-17T04:00:10;35.38;33.93;45.42;;
67398;Laerm;57728;50.448;18.824;2024-03-17T04:02:14;35.28;33.77;45.77;;
67398;Laerm;57728;50.448;18.824;2024-03-17T04:04:15;35.96;33.71;52.27;;
67398;Laerm;57728;50.448;18.824;2024-03-17T04:06:17;35.20;33.91;44.51;;
67398;Laerm;57728;50.448;18.824;2024-03-17T04:08:19;35.06;33.89;38.16;;
67398;Laerm;57728;50.448;18.824;2024-03-17T04:10:20;35.10;33.84;41.75;;
67398;Laerm;57728;50.448;18.824;2024-03-17T04:12:24;35.12;33.80;37.73;;
67398;Laerm;57728;50.448;18.824;2024-03-17T04:14:25;35.45;33.91;46.53;;
67398;Laerm;57728;50.448;18.824;2024-03-17T04:16:27;35.17;33.76;43.08;;
67398;Laerm;57728;50.448;18.824;2024-03-17T04:18:29;35.28;33.81;46.19;;
67398;Laerm;57728;50.448;18.824;2024-03-17T04:20:31;35.16;33.94;42.10;;
67398;Laerm;57728;50.448;18.824;2024-03-17T04:22:32;35.06;33.76;41.41;;
67398;Laerm;57728;50.448;18.824;2024-03-17T04:24:34;35.26;33.85;49.70;;
67398;Laerm;57728;50.448;18.824;2024-03-17T04:26:35;35.02;33.94;39.24;;
67398;Laerm;57728;50.448;18.824;2024-03-17T04:28:36;35.50;33.81;47.19;;
67398;Laerm;57728;50.448;18.824;2024-03-17T04:30:38;35.60;33.81;52.86;;
67398;Laerm;57728;50.448;18.824;2024-03-17T04:32:40;35.22;33.92;44.55;;
67398;Laerm;57728;50.448;18.824;2024-03-17T04:34:42;35.28;33.80;42.24;;
67398;Laerm;57728;50.448;18.824;2024-03-17T04:36:45;35.29;33.87;40.23;;
67398;Laerm;57728;50.448;18.824;2024-03-17T04:38:46;35.33;33.73;42.49;;
67398;Laerm;57728;50.448;18.824;2024-03-17T04:40:47;35.25;33.74;42.55;;
67398;Laerm;57728;50.448;18.824;2024-03-17T04:42:50;35.13;33.87;40.98;;
67398;Laerm;57728;50.448;18.824;2024-03-17T04:44:51;35.22;33.91;39.23;;
67398;Laerm;57728;50.448;18.824;2024-03-17T04:46:54;35.20;33.74;40.97;;
67398;Laerm;57728;50.448;18.824;2024-03-17T04:48:56;35.15;33.93;42.33;;
67398;Laerm;57728;50.448;18.824;2024-03-17T04:50:57;35.36;34.01;40.36;;
67398;Laerm;57728;50.448;18.824;2024-03-17T04:52:59;35.42;33.82;42.90;;
67398;Laerm;57728;50.448;18.824;2024-03-17T04:55:02;35.38;33.86;39.93;;
67398;Laerm;57728;50.448;18.824;2024-03-17T04:57:04;35.45;34.03;41.59;;
67398;Laerm;57728;50.448;18.824;2024-03-17T04:59:06;35.53;33.93;41.60;;
67398;Laerm;57728;50.448;18.824;2024-03-17T05:01:08;35.47;33.99;40.55;;
67398;Laerm;57728;50.448;18.824;2024-03-17T05:03:09;35.45;33.99;40.71;;
67398;Laerm;57728;50.448;18.824;2024-03-17T05:05:10;35.38;33.77;39.37;;
67398;Laerm;57728;50.448;18.824;2024-03-17T05:07:12;35.51;34.14;43.23;;
67398;Laerm;57728;50.448;18.824;2024-03-17T05:09:13;36.72;33.87;46.84;;
67398;Laerm;57728;50.448;18.824;2024-03-17T05:11:14;36.66;34.09;47.58;;
67398;Laerm;57728;50.448;18.824;2024-03-17T05:13:17;35.36;34.06;40.78;;
67398;Laerm;57728;50.448;18.824;2024-03-17T05:15:18;35.33;33.93;38.64;;
67398;Laerm;57728;50.448;18.824;2024-03-17T05:17:19;35.34;33.87;38.65;;
67398;Laerm;57728;50.448;18.824;2024-03-17T05:19:21;35.48;34.15;37.96;;
67398;Laerm;57728;50.448;18.824;2024-03-17T05:21:24;35.50;33.73;42.15;;
67398;Laerm;57728;50.448;18.824;2024-03-17T05:23:32;35.77;34.21;44.16;;
67398;Laerm;57728;50.448;18.824;2024-03-17T05:25:34;35.84;34.13;42.46;;
67398;Laerm;57728;50.448;18.824;2024-03-17T05:27:38;35.65;34.10;44.20;;
67398;Laerm;57728;50.448;18.824;2024-03-17T05:29:39;35.81;34.26;44.80;;
67398;Laerm;57728;50.448;18.824;2024-03-17T05:31:41;36.18;34.50;43.71;;
67398;Laerm;57728;50.448;18.824;2024-03-17T05:33:44;35.73;34.41;41.01;;
67398;Laerm;57728;50.448;18.824;2024-03-17T05:35:53;36.03;34.29;40.28;;
67398;Laerm;57728;50.448;18.824;2024-03-17T05:37:58;36.01;34.36;42.17;;
67398;Laerm;57728;50.448;18.824;2024-03-17T05:39:59;35.96;34.52;47.65;;
67398;Laerm;57728;50.448;18.824;2024-03-17T05:42:01;35.86;34.18;39.92;;
67398;Laerm;57728;50.448;18.824;2024-03-17T05:44:05;35.80;34.38;40.82;;
67398;Laerm;57728;50.448;18.824;2024-03-17T05:46:11;35.95;34.13;45.90;;
67398;Laerm;57728;50.448;18.824;2024-03-17T05:48:13;36.15;34.28;44.25;;
67398;Laerm;57728;50.448;18.824;2024-03-17T05:50:15;36.96;34.32;47.55;;
67398;Laerm;57728;50.448;18.824;2024-03-17T05:52:17;35.82;34.17;48.61;;
67398;Laerm;57728;50.448;18.824;2024-03-17T05:54:18;36.26;34.27;50.63;;
67398;Laerm;57728;50.448;18.824;2024-03-17T05:56:20;36.44;34.07;52.17;;
67398;Laerm;57728;50.448;18.824;2024-03-17T05:58:23;36.12;34.04;49.85;;
67398;Laerm;57728;50.448;18.824;2024-03-17T06:00:24;35.44;34.20;44.83;;
67398;Laerm;57728;50.448;18.824;2024-03-17T06:02:26;36.10;34.07;54.20;;
67398;Laerm;57728;50.448;18.824;2024-03-17T06:04:27;35.35;34.13;41.27;;
67398;Laerm;57728;50.448;18.824;2024-03-17T06:06:28;35.31;33.99;44.58;;
67398;Laerm;57728;50.448;18.824;2024-03-17T06:08:30;36.82;33.72;51.24;;
67398;Laerm;57728;50.448;18.824;2024-03-17T06:10:32;35.18;34.04;41.60;;
67398;Laerm;57728;50.448;18.824;2024-03-17T06:12:34;36.14;33.94;49.08;;
67398;Laerm;57728;50.448;18.824;2024-03-17T06:14:36;36.28;33.85;53.22;;
67398;Laerm;57728;50.448;18.824;2024-03-17T06:16:37;36.00;33.81;52.01;;
67398;Laerm;57728;50.448;18.824;2024-03-17T06:18:38;35.04;33.71;43.39;;
67398;Laerm;57728;50.448;18.824;2024-03-17T06:20:42;35.31;33.71;45.00;;
67398;Laerm;57728;50.448;18.824;2024-03-17T06:22:44;35.07;33.92;41.58;;
67398;Laerm;57728;50.448;18.824;2024-03-17T06:24:46;35.10;33.58;45.30;;
67398;Laerm;57728;50.448;18.824;2024-03-17T06:26:50;35.34;33.91;45.06;;
67398;Laerm;57728;50.448;18.824;2024-03-17T06:28:51;35.42;33.93;39.26;;
67398;Laerm;57728;50.448;18.824;2024-03-17T06:30:59;35.57;34.12;42.89;;
67398;Laerm;57728;50.448;18.824;2024-03-17T06:33:01;35.62;34.06;39.05;;
67398;Laerm;57728;50.448;18.824;2024-03-17T06:35:03;35.46;33.89;43.74;;
67398;Laerm;57728;50.448;18.824;2024-03-17T06:37:04;35.41;34.07;45.53;;
67398;Laerm;57728;50.448;18.824;2024-03-17T06:39:06;35.26;33.96;44.45;;
67398;Laerm;57728;50.448;18.824;2024-03-17T06:41:07;35.23;33.97;41.63;;
67398;Laerm;57728;50.448;18.824;2024-03-17T06:43:08;36.67;33.83;59.26;;
67398;Laerm;57728;50.448;18.824;2024-03-17T06:45:10;35.39;33.75;44.37;;
67398;Laerm;57728;50.448;18.824;2024-03-17T06:47:11;35.08;33.87;42.09;;
67398;Laerm;57728;50.448;18.824;2024-03-17T06:49:13;35.82;33.79;47.30;;
67398;Laerm;57728;50.448;18.824;2024-03-17T06:51:14;39.15;33.83;58.98;;
67398;Laerm;57728;50.448;18.824;2024-03-17T06:53:16;36.91;33.90;51.68;;
67398;Laerm;57728;50.448;18.824;2024-03-17T06:55:17;35.40;33.78;45.53;;
67398;Laerm;57728;50.448;18.824;2024-03-17T06:57:19;35.63;33.84;47.92;;
67398;Laerm;57728;50.448;18.824;2024-03-17T06:59:20;37.78;33.99;61.88;;
67398;Laerm;57728;50.448;18.824;2024-03-17T07:01:21;37.12;33.75;60.92;;
67398;Laerm;57728;50.448;18.824;2024-03-17T07:03:28;35.14;33.99;45.52;;
67398;Laerm;57728;50.448;18.824;2024-03-17T07:05:30;35.04;33.85;37.14;;
67398;Laerm;57728;50.448;18.824;2024-03-17T07:07:33;36.68;33.82;55.17;;
67398;Laerm;57728;50.448;18.824;2024-03-17T07:09:36;36.42;33.97;54.85;;
67398;Laerm;57728;50.448;18.824;2024-03-17T07:11:37;38.60;33.82;59.29;;
67398;Laerm;57728;50.448;18.824;2024-03-17T07:13:38;41.27;33.76;62.71;;
67398;Laerm;57728;50.448;18.824;2024-03-17T07:15:47;41.75;33.95;62.94;;
67398;Laerm;57728;50.448;18.824;2024-03-17T07:17:50;35.93;33.59;52.93;;
67398;Laerm;57728;50.448;18.824;2024-03-17T07:19:51;36.16;33.58;53.74;;
67398;Laerm;57728;50.448;18.824;2024-03-17T07:21:53;36.13;33.51;54.89;;
67398;Laerm;57728;50.448;18.824;2024-03-17T07:23:55;35.08;33.69;45.60;;
67398;Laerm;57728;50.448;18.824;2024-03-17T07:26:02;36.25;33.71;56.90;;
67398;Laerm;57728;50.448;18.824;2024-03-17T07:28:06;35.23;33.48;47.79;;
67398;Laerm;57728;50.448;18.824;2024-03-17T07:30:08;37.77;33.69;58.15;;
67398;Laerm;57728;50.448;18.824;2024-03-17T07:32:10;39.93;33.77;56.37;;
67398;Laerm;57728;50.448;18.824;2024-03-17T07:34:12;38.71;33.56;59.84;;
67398;Laerm;57728;50.448;18.824;2024-03-17T07:36:13;36.96;33.52;53.94;;
67398;Laerm;57728;50.448;18.824;2024-03-17T07:38:14;39.88;33.56;59.49;;
67398;Laerm;57728;50.448;18.824;2024-03-17T07:40:17;40.81;33.54;60.72;;
67398;Laerm;57728;50.448;18.824;2024-03-17T07:42:19;41.88;33.44;63.24;;
67398;Laerm;57728;50.448;18.824;2024-03-17T07:44:20;35.46;33.50;53.75;;
67398;Laerm;57728;50.448;18.824;2024-03-17T07:46:22;41.25;33.63;62.90;;
67398;Laerm;57728;50.448;18.824;2024-03-17T07:48:23;37.54;33.60;54.89;;
67398;Laerm;57728;50.448;18.824;2024-03-17T07:50:24;36.29;33.35;50.54;;
67398;Laerm;57728;50.448;18.824;2024-03-17T07:52:26;38.29;33.68;56.60;;
67398;Laerm;57728;50.448;18.824;2024-03-17T07:54:27;35.56;33.32;47.64;;
67398;Laerm;57728;50.448;18.824;2024-03-17T07:56:29;36.71;33.54;54.33;;
67398;Laerm;57728;50.448;18.824;2024-03-17T07:58:33;39.46;33.62;63.59;;
67398;Laerm;57728;50.448;18.824;2024-03-17T08:00:34;41.96;33.79;60.30;;
67398;Laerm;57728;50.448;18.824;2024-03-17T08:02:35;37.15;33.50;58.79;;
67398;Laerm;57728;50.448;18.824;2024-03-17T08:04:37;35.10;33.34;46.78;;
67398;Laerm;57728;50.448;18.824;2024-03-17T08:06:40;37.71;33.68;58.64;;
67398;Laerm;57728;50.448;18.824;2024-03-17T08:08:45;36.73;33.64;53.29;;
67398;Laerm;57728;50.448;18.824;2024-03-17T08:10:47;35.03;33.01;43.72;;
67398;Laerm;57728;50.448;18.824;2024-03-17T08:12:49;36.62;33.46;58.94;;
67398;Laerm;57728;50.448;18.824;2024-03-17T08:14:50;36.50;33.41;55.22;;
67398;Laerm;57728;50.448;18.824;2024-03-17T08:16:52;35.86;33.21;55.87;;
67398;Laerm;57728;50.448;18.824;2024-03-17T08:18:53;36.42;33.18;51.23;;
67398;Laerm;57728;50.448;18.824;2024-03-17T08:20:55;35.16;33.55;50.73;;
67398;Laerm;57728;50.448;18.824;2024-03-17T08:22:57;34.97;33.59;50.12;;
67398;Laerm;57728;50.448;18.824;2024-03-17T08:24:58;37.94;33.12;58.73;;
67398;Laerm;57728;50.448;18.824;2024-03-17T08:26:59;39.78;33.39;61.62;;
67398;Laerm;57728;50.448;18.824;2024-03-17T08:29:01;39.85;33.56;64.63;;
67398;Laerm;57728;50.448;18.824;2024-03-17T08:31:04;35.49;33.37;51.91;;
67398;Laerm;57728;50.448;18.824;2024-03-17T08:33:05;35.57;33.48;50.84;;
67398;Laerm;57728;50.448;18.824;2024-03-17T08:35:08;35.69;33.40;50.13;;
67398;Laerm;57728;50.448;18.824;2024-03-17T08:37:09;37.11;33.56;57.02;;
67398;Laerm;57728;50.448;18.824;2024-03-17T08:39:10;39.11;33.55;62.16;;
67398;Laerm;57728;50.448;18.824;2024-03-17T08:41:13;35.84;33.44;50.61;;
67398;Laerm;57728;50.448;18.824;2024-03-17T08:43:15;39.33;33.75;56.15;;
67398;Laerm;57728;50.448;18.824;2024-03-17T08:45:16;39.01;33.89;57.46;;
67398;Laerm;57728;50.448;18.824;2024-03-17T08:47:18;36.37;33.82;54.43;;
67398;Laerm;57728;50.448;18.824;2024-03-17T08:49:19;36.08;33.54;50.78;;
67398;Laerm;57728;50.448;18.824;2024-03-17T08:51:20;37.92;33.92;60.24;;
67398;Laerm;57728;50.448;18.824;2024-03-17T08:53:24;37.67;33.68;53.59;;
67398;Laerm;57728;50.448;18.824;2024-03-17T08:55:25;35.63;33.52;50.73;;
67398;Laerm;57728;50.448;18.824;2024-03-17T08:57:26;36.25;33.40;53.74;;
67398;Laerm;57728;50.448;18.824;2024-03-17T08:59:28;36.40;33.60;55.28;;
67398;Laerm;57728;50.448;18.824;2024-03-17T09:01:29;43.05;34.03;63.98;;
67398;Laerm;57728;50.448;18.824;2024-03-17T09:03:30;39.44;33.66;57.08;;
67398;Laerm;57728;50.448;18.824;2024-03-17T09:05:36;39.93;33.78;65.86;;
67398;Laerm;57728;50.448;18.824;2024-03-17T09:07:39;44.50;33.43;68.44;;
67398;Laerm;57728;50.448;18.824;2024-03-17T09:09:40;43.78;33.55;61.63;;
67398;Laerm;57728;50.448;18.824;2024-03-17T09:11:42;42.30;33.81;59.83;;
67398;Laerm;57728;50.448;18.824;2024-03-17T09:13:43;39.29;33.56;58.17;;
67398;Laerm;57728;50.448;18.824;2024-03-17T09:16:00;35.08;33.36;52.43;;
67398;Laerm;57728;50.448;18.824;2024-03-17T09:18:02;39.68;33.61;65.63;;
67398;Laerm;57728;50.448;18.824;2024-03-17T09:20:05;41.17;33.81;65.90;;
67398;Laerm;57728;50.448;18.824;2024-03-17T09:22:07;42.57;34.04;64.59;;
67398;Laerm;57728;50.448;18.824;2024-03-17T09:24:11;40.81;34.30;60.69;;
67398;Laerm;57728;50.448;18.824;2024-03-17T09:26:12;40.82;34.20;61.05;;
67398;Laerm;57728;50.448;18.824;2024-03-17T09:28:15;37.00;33.67;54.81;;
67398;Laerm;57728;50.448;18.824;2024-03-17T09:30:16;38.10;33.68;58.55;;
67398;Laerm;57728;50.448;18.824;2024-03-17T09:32:17;37.96;33.56;59.96;;
67398;Laerm;57728;50.448;18.824;2024-03-17T09:34:19;38.68;33.76;60.48;;
67398;Laerm;57728;50.448;18.824;2024-03-17T09:36:20;38.06;33.47;59.61;;
67398;Laerm;57728;50.448;18.824;2024-03-17T09:38:22;35.92;33.58;53.86;;
67398;Laerm;57728;50.448;18.824;2024-03-17T09:40:24;37.22;33.66;54.76;;
67398;Laerm;57728;50.448;18.824;2024-03-17T09:42:27;37.00;33.54;54.89;;
67398;Laerm;57728;50.448;18.824;2024-03-17T09:44:32;42.00;33.41;62.25;;
67398;Laerm;57728;50.448;18.824;2024-03-17T09:46:36;41.29;33.50;62.37;;
67398;Laerm;57728;50.448;18.824;2024-03-17T09:48:41;39.81;33.55;58.10;;
67398;Laerm;57728;50.448;18.824;2024-03-17T09:50:55;44.14;33.36;68.85;;
67398;Laerm;57728;50.448;18.824;2024-03-17T09:52:59;37.01;33.44;54.30;;
67398;Laerm;57728;50.448;18.824;2024-03-17T09:55:15;37.28;33.70;53.11;;
67398;Laerm;57728;50.448;18.824;2024-03-17T09:57:22;37.08;33.48;54.38;;
67398;Laerm;57728;50.448;18.824;2024-03-17T09:59:24;38.10;33.72;58.12;;
67398;Laerm;57728;50.448;18.824;2024-03-17T10:01:26;35.73;33.65;51.50;;
67398;Laerm;57728;50.448;18.824;2024-03-17T10:03:49;35.31;33.40;53.37;;
67398;Laerm;57728;50.448;18.824;2024-03-17T10:06:07;36.14;33.47;50.23;;
67398;Laerm;57728;50.448;18.824;2024-03-17T10:08:21;36.05;33.45;52.66;;
67398;Laerm;57728;50.448;18.824;2024-03-17T10:10:24;35.70;33.48;48.49;;
67398;Laerm;57728;50.448;18.824;2024-03-17T10:12:27;36.53;33.32;54.45;;
67398;Laerm;57728;50.448;18.824;2024-03-17T10:14:29;35.87;33.62;48.72;;
67398;Laerm;57728;50.448;18.824;2024-03-17T10:16:32;41.54;33.45;64.20;;
67398;Laerm;57728;50.448;18.824;2024-03-17T10:18:34;36.16;33.60;51.31;;
67398;Laerm;57728;50.448;18.824;2024-03-17T10:20:43;35.40;33.47;47.41;;
67398;Laerm;57728;50.448;18.824;2024-03-17T10:23:05;38.08;33.54;54.28;;
67398;Laerm;57728;50.448;18.824;2024-03-17T10:25:10;35.69;33.50;51.41;;
67398;Laerm;57728;50.448;18.824;2024-03-17T10:27:12;37.14;33.41;55.03;;
67398;Laerm;57728;50.448;18.824;2024-03-17T10:31:28;40.25;34.02;55.90;;
67398;Laerm;57728;50.448;18.824;2024-03-17T10:33:30;35.99;33.34;50.50;;
67398;Laerm;57728;50.448;18.824;2024-03-17T10:35:35;35.08;33.35;53.42;;
67398;Laerm;57728;50.448;18.824;2024-03-17T10:37:37;35.12;33.27;49.40;;
67398;Laerm;57728;50.448;18.824;2024-03-17T10:39:44;35.25;33.48;46.48;;
67398;Laerm;57728;50.448;18.824;2024-03-17T10:41:46;35.45;33.79;48.99;;
67398;Laerm;57728;50.448;18.824;2024-03-17T10:43:47;36.43;33.89;55.04;;
67398;Laerm;57728;50.448;18.824;2024-03-17T10:45:52;41.64;33.65;58.86;;
67398;Laerm;57728;50.448;18.824;2024-03-17T10:47:55;36.34;33.59;50.66;;
67398;Laerm;57728;50.448;18.824;2024-03-17T10:49:56;38.95;33.62;58.32;;
67398;Laerm;57728;50.448;18.824;2024-03-17T10:52:02;35.35;33.52;50.21;;
67398;Laerm;57728;50.448;18.824;2024-03-17T10:54:05;37.55;33.46;54.11;;
67398;Laerm;57728;50.448;18.824;2024-03-17T10:56:08;40.06;33.69;57.44;;
67398;Laerm;57728;50.448;18.824;2024-03-17T10:58:33;35.81;33.60;47.34;;
67398;Laerm;57728;50.448;18.824;2024-03-17T11:00:37;35.60;33.27;48.75;;
67398;Laerm;57728;50.448;18.824;2024-03-17T11:02:41;41.42;33.58;63.30;;
67398;Laerm;57728;50.448;18.824;2024-03-17T11:04:43;37.56;33.39;62.60;;
67398;Laerm;57728;50.448;18.824;2024-03-17T11:06:44;37.24;33.63;54.94;;
67398;Laerm;57728;50.448;18.824;2024-03-17T11:08:48;37.60;33.47;56.03;;
67398;Laerm;57728;50.448;18.824;2024-03-17T11:10:52;35.55;33.65;49.78;;
67398;Laerm;57728;50.448;18.824;2024-03-17T11:13:00;35.78;33.79;48.28;;
67398;Laerm;57728;50.448;18.824;2024-03-17T11:17:38;36.21;33.85;50.80;;
67398;Laerm;57728;50.448;18.824;2024-03-17T11:19:39;36.40;33.93;52.95;;
67398;Laerm;57728;50.448;18.824;2024-03-17T11:21:40;35.66;33.70;50.49;;